Wetterstation Vordersexau
Wetterdaten: Woche 26.03.18 - 01.04.18 (KW13)
Datum Zeit Temp. A. Feuchte A. Luftdruck Regen Wind Richtung Taupunkt Windchill Windben
26.03.2018 00:00 3,9 C 79 % 1007,6 hPa 0,0 l/m 0,0 km/h N-NO 0,6 C 3,9 C 0,0 km/h
26.03.2018 01:00 3,4 C 78 % 1007,7 hPa 0,0 l/m 0,0 km/h NO -0,1 C 3,4 C 0,0 km/h
26.03.2018 02:00 2,3 C 81 % 1008,0 hPa 0,0 l/m 0,0 km/h NO -0,6 C 2,3 C 0,0 km/h
26.03.2018 03:00 1,9 C 82 % 1008,3 hPa 0,0 l/m 0,0 km/h NO -0,8 C 1,9 C 0,0 km/h
26.03.2018 04:00 1,3 C 83 % 1008,4 hPa 0,0 l/m 0,0 km/h O-NO -1,3 C 1,3 C 0,0 km/h
26.03.2018 05:00 0,8 C 84 % 1008,8 hPa 0,0 l/m 0,0 km/h NO -1,6 C 0,8 C 0,0 km/h
26.03.2018 06:00 0,8 C 85 % 1009,3 hPa 0,0 l/m 0,0 km/h NO -1,4 C 0,8 C 0,0 km/h
26.03.2018 07:00 1,5 C 85 % 1009,9 hPa 0,0 l/m 0,0 km/h NO -0,7 C 1,5 C 0,0 km/h
26.03.2018 08:00 3,8 C 83 % 1010,5 hPa 0,0 l/m 0,0 km/h O-NO 1,2 C 3,8 C 0,0 km/h
26.03.2018 09:00 7,6 C 78 % 1011,2 hPa 0,0 l/m 0,0 km/h SO 4,0 C 7,6 C 0,0 km/h
26.03.2018 10:00 11,9 C 62 % 1011,4 hPa 0,0 l/m 0,0 km/h N-NW 4,9 C 11,9 C 0,0 km/h
26.03.2018 11:00 11,4 C 57 % 1011,7 hPa 0,0 l/m 0,0 km/h N 3,2 C 11,4 C 0,0 km/h
26.03.2018 12:00 10,4 C 60 % 1012,2 hPa 0,0 l/m 3,2 km/h W 3,0 C 10,4 C 1,8 km/h
26.03.2018 13:00 10,2 C 61 % 1012,3 hPa 0,0 l/m 0,0 km/h W-SW 3,0 C 10,2 C 0,0 km/h
26.03.2018 14:00 10,6 C 62 % 1012,3 hPa 0,0 l/m 0,0 km/h S-SW 3,6 C 10,6 C 0,0 km/h
26.03.2018 15:00 13,7 C 56 % 1012,5 hPa 0,0 l/m 14,3 km/h W 5,1 C 9,9 C 7,9 km/h
26.03.2018 16:00 13,1 C 47 % 1012,5 hPa 0,0 l/m 0,0 km/h W 2,0 C 13,1 C 0,0 km/h
26.03.2018 17:00 11,8 C 52 % 1012,6 hPa 0,0 l/m 0,0 km/h SW 2,3 C 11,8 C 0,0 km/h
26.03.2018 18:00 10,6 C 57 % 1012,8 hPa 0,0 l/m 0,0 km/h W-SW 2,4 C 10,6 C 0,0 km/h
26.03.2018 19:00 9,2 C 62 % 1013,4 hPa 0,0 l/m 0,0 km/h N-NO 2,3 C 9,2 C 0,0 km/h
26.03.2018 20:00 7,4 C 73 % 1014,0 hPa 0,0 l/m 0,0 km/h SO 2,9 C 7,4 C 0,0 km/h
26.03.2018 21:00 6,4 C 81 % 1014,6 hPa 0,5 l/m 0,0 km/h NO 3,4 C 6,4 C 0,0 km/h
26.03.2018 22:00 6,1 C 84 % 1014,7 hPa 0,0 l/m 0,0 km/h NO 3,6 C 6,1 C 0,0 km/h
26.03.2018 23:00 5,8 C 84 % 1014,8 hPa 1,0 l/m 0,0 km/h O-NO 3,3 C 5,8 C 0,0 km/h
27.03.2018 00:00 5,6 C 85 % 1014,8 hPa 0,5 l/m 0,0 km/h O-NO 3,3 C 5,6 C 0,0 km/h
27.03.2018 01:00 5,3 C 85 % 1014,7 hPa 0,0 l/m 0,0 km/h O-SO 3,0 C 5,3 C 0,0 km/h
27.03.2018 02:00 5,1 C 85 % 1014,7 hPa 0,5 l/m 0,0 km/h O-SO 2,8 C 5,1 C 0,0 km/h
27.03.2018 03:00 4,5 C 85 % 1014,7 hPa 0,0 l/m 0,0 km/h O-SO 2,2 C 4,5 C 0,0 km/h
27.03.2018 04:00 3,9 C 85 % 1014,6 hPa 0,0 l/m 0,0 km/h O-SO 1,6 C 3,9 C 0,0 km/h
27.03.2018 05:00 2,4 C 86 % 1014,5 hPa 0,0 l/m 0,0 km/h NO 0,3 C 2,4 C 0,0 km/h
27.03.2018 06:00 1,6 C 85 % 1014,3 hPa 0,0 l/m 0,0 km/h SO -0,6 C 1,6 C 0,0 km/h
27.03.2018 07:00 2,1 C 84 % 1014,5 hPa 0,0 l/m 0,0 km/h N-NO -0,3 C 2,1 C 0,0 km/h
27.03.2018 08:00 4,3 C 80 % 1014,8 hPa 0,0 l/m 0,0 km/h O-SO 1,2 C 4,3 C 0,0 km/h
27.03.2018 09:00 9,6 C 85 % 1014,4 hPa 0,0 l/m 0,0 km/h S-SO 7,2 C 9,6 C 0,0 km/h
27.03.2018 10:00 13,6 C 68 % 1014,0 hPa 0,0 l/m 0,0 km/h SW 7,8 C 13,6 C 0,0 km/h
27.03.2018 11:00 14,5 C 58 % 1013,3 hPa 0,0 l/m 0,0 km/h SW 6,3 C 14,5 C 0,0 km/h
27.03.2018 12:00 16,2 C 44 % 1012,5 hPa 0,0 l/m 24,0 km/h S-SW 3,9 C 10,4 C 13,3 km/h
27.03.2018 13:00 15,0 C 42 % 1011,4 hPa 0,0 l/m 22,0 km/h S-SW 2,2 C 9,3 C 12,2 km/h
27.03.2018 14:00 13,6 C 41 % 1010,5 hPa 0,0 l/m 20,7 km/h SW 0,6 C 7,7 C 11,5 km/h
27.03.2018 15:00 13,9 C 42 % 1009,5 hPa 0,0 l/m 19,4 km/h W-SW 1,2 C 8,5 C 10,8 km/h
27.03.2018 16:00 12,1 C 49 % 1009,3 hPa 0,0 l/m 26,6 km/h S-SW 1,7 C 4,3 C 14,8 km/h
27.03.2018 17:00 10,4 C 57 % 1008,8 hPa 0,0 l/m 20,1 km/h W-SW 2,3 C 3,8 C 11,2 km/h
27.03.2018 18:00 8,1 C 72 % 1008,9 hPa 0,0 l/m 22,0 km/h S-SW 3,4 C 0,2 C 12,2 km/h
27.03.2018 19:00 7,3 C 77 % 1008,6 hPa 0,0 l/m 1,9 km/h S-SO 3,5 C 7,3 C 1,1 km/h
27.03.2018 20:00 6,7 C 80 % 1008,5 hPa 0,5 l/m 2,6 km/h S 3,5 C 6,7 C 1,4 km/h
27.03.2018 21:00 6,9 C 80 % 1008,5 hPa 0,0 l/m 0,0 km/h W-SW 3,7 C 6,9 C 0,0 km/h
27.03.2018 22:00 6,9 C 82 % 1008,4 hPa 0,0 l/m 0,0 km/h W-SW 4,0 C 6,9 C 0,0 km/h
27.03.2018 23:00 7,9 C 82 % 1008,0 hPa 0,0 l/m 24,0 km/h SW 5,0 C -0,7 C 13,3 km/h
28.03.2018 00:00 7,6 C 84 % 1007,6 hPa 0,0 l/m 10,4 km/h SW 5,1 C 4,7 C 5,8 km/h
28.03.2018 01:00 7,3 C 84 % 1007,6 hPa 0,5 l/m 2,6 km/h W-SW 4,8 C 7,3 C 1,4 km/h
28.03.2018 02:00 8,2 C 84 % 1007,3 hPa 0,0 l/m 7,1 km/h W 5,7 C 7,7 C 4,0 km/h
28.03.2018 03:00 8,5 C 84 % 1007,4 hPa 0,0 l/m 18,8 km/h SW 6,0 C 1,8 C 10,4 km/h
28.03.2018 04:00 8,9 C 85 % 1007,2 hPa 0,0 l/m 9,1 km/h W-SW 6,5 C 6,9 C 5,0 km/h
28.03.2018 05:00 9,1 C 84 % 1007,1 hPa 0,0 l/m 38,2 km/h SW 6,5 C -2,2 C 21,2 km/h
28.03.2018 06:00 8,9 C 83 % 1007,1 hPa 0,0 l/m 23,3 km/h S 6,2 C 0,8 C 13,0 km/h
28.03.2018 07:00 8,9 C 81 % 1007,1 hPa 0,0 l/m 12,3 km/h W-SW 5,8 C 5,1 C 6,8 km/h
28.03.2018 08:00 9,6 C 78 % 1007,1 hPa 0,0 l/m 18,1 km/h S-SW 6,0 C 3,4 C 10,1 km/h
28.03.2018 09:00 11,2 C 75 % 1006,9 hPa 0,0 l/m 22,0 km/h S-SW 6,9 C 4,2 C 12,2 km/h
28.03.2018 10:00 11,3 C 75 % 1006,5 hPa 0,0 l/m 25,3 km/h S-SW 7,0 C 3,5 C 14,0 km/h
28.03.2018 11:00 11,2 C 76 % 1006,2 hPa 0,0 l/m 22,7 km/h W-SW 7,1 C 4,1 C 12,6 km/h
28.03.2018 12:00 12,5 C 76 % 1005,2 hPa 0,0 l/m 25,9 km/h W-SW 8,4 C 5,0 C 14,4 km/h
28.03.2018 13:00 11,5 C 80 % 1004,2 hPa 0,0 l/m 22,7 km/h SW 8,2 C 4,5 C 12,6 km/h
28.03.2018 14:00 10,7 C 84 % 1003,1 hPa 0,5 l/m 21,4 km/h SW 8,1 C 3,8 C 11,9 km/h
28.03.2018 15:00 12,1 C 79 % 1001,8 hPa 0,0 l/m 21,4 km/h S 8,6 C 5,6 C 11,9 km/h
28.03.2018 16:00 12,1 C 78 % 1000,8 hPa 0,0 l/m 46,7 km/h S-SW 8,4 C 1,2 C 25,9 km/h
28.03.2018 17:00 11,9 C 76 % 1000,2 hPa 0,0 l/m 23,3 km/h SW 7,8 C 4,8 C 13,0 km/h
28.03.2018 18:00 12,2 C 76 % 999,6 hPa 0,0 l/m 36,9 km/h S-SW 8,1 C 2,6 C 20,5 km/h
28.03.2018 19:00 10,7 C 84 % 1000,0 hPa 0,0 l/m 29,2 km/h W-SW 8,1 C 1,8 C 16,2 km/h
28.03.2018 20:00 10,4 C 85 % 1001,0 hPa 0,5 l/m 21,4 km/h SW 8,0 C 3,4 C 11,9 km/h
28.03.2018 21:00 10,4 C 83 % 1001,1 hPa 0,0 l/m 23,3 km/h W 7,6 C 2,8 C 13,0 km/h
28.03.2018 22:00 7,9 C 84 % 1002,5 hPa 4,1 l/m 0,0 km/h O 5,4 C 7,9 C 0,0 km/h
28.03.2018 23:00 7,0 C 85 % 1002,9 hPa 1,0 l/m 0,0 km/h NO 4,7 C 7,0 C 0,0 km/h
29.03.2018 00:00 7,1 C 84 % 1003,5 hPa 0,5 l/m 0,0 km/h N-NO 4,6 C 7,1 C 0,0 km/h
29.03.2018 01:00 6,9 C 85 % 1004,5 hPa 0,0 l/m 0,0 km/h SO 4,6 C 6,9 C 0,0 km/h
29.03.2018 02:00 4,7 C 85 % 1004,9 hPa 0,0 l/m 2,6 km/h NO 2,4 C 4,7 C 1,4 km/h
29.03.2018 03:00 3,9 C 86 % 1005,2 hPa 0,0 l/m 0,0 km/h O-NO 1,8 C 3,9 C 0,0 km/h
29.03.2018 04:00 2,8 C 85 % 1005,5 hPa 0,0 l/m 0,0 km/h N-NO 0,5 C 2,8 C 0,0 km/h
29.03.2018 05:00 3,1 C 84 % 1005,8 hPa 0,0 l/m 0,0 km/h N-NO 0,7 C 3,1 C 0,0 km/h
29.03.2018 06:00 2,4 C 84 % 1006,1 hPa 0,0 l/m 0,0 km/h N-NO -0,0 C 2,4 C 0,0 km/h
29.03.2018 07:00 2,9 C 83 % 1006,4 hPa 0,0 l/m 0,0 km/h N-NO 0,3 C 2,9 C 0,0 km/h
29.03.2018 08:00 5,1 C 79 % 1006,5 hPa 0,0 l/m 0,0 km/h NO 1,8 C 5,1 C 0,0 km/h
29.03.2018 09:00 9,1 C 79 % 1006,2 hPa 0,0 l/m 0,0 km/h S 5,7 C 9,1 C 0,0 km/h
29.03.2018 10:00 11,9 C 67 % 1006,1 hPa 0,0 l/m 9,7 km/h W-SW 6,0 C 9,9 C 5,4 km/h
29.03.2018 11:00 13,3 C 61 % 1006,0 hPa 0,0 l/m 9,7 km/h W-SW 5,9 C 11,4 C 5,4 km/h
29.03.2018 12:00 11,3 C 61 % 1005,9 hPa 0,0 l/m 14,9 km/h W-SW 4,1 C 6,7 C 8,3 km/h
29.03.2018 13:00 10,0 C 65 % 1005,6 hPa 0,0 l/m 0,0 km/h SW 3,7 C 10,0 C 0,0 km/h
29.03.2018 14:00 11,3 C 64 % 1005,4 hPa 0,0 l/m 19,4 km/h W-SW 4,7 C 5,2 C 10,8 km/h
29.03.2018 15:00 10,6 C 62 % 1005,2 hPa 0,0 l/m 9,7 km/h W 3,6 C 8,4 C 5,4 km/h
29.03.2018 16:00 10,9 C 62 % 1005,1 hPa 0,0 l/m 6,5 km/h SW 3,9 C 10,9 C 3,6 km/h
29.03.2018 17:00 10,4 C 65 % 1004,9 hPa 0,0 l/m 11,0 km/h W-SW 4,1 C 7,5 C 6,1 km/h
29.03.2018 18:00 10,7 C 63 % 1005,0 hPa 0,0 l/m 14,9 km/h SW 3,9 C 6,0 C 8,3 km/h
29.03.2018 19:00 8,1 C 66 % 1004,7 hPa 0,0 l/m 0,0 km/h N-NW 2,1 C 8,1 C 0,0 km/h
29.03.2018 20:00 4,4 C 77 % 1005,4 hPa 0,0 l/m 0,0 km/h O 0,7 C 4,4 C 0,0 km/h
29.03.2018 21:00 4,3 C 82 % 1005,5 hPa 0,0 l/m 0,0 km/h NO 1,5 C 4,3 C 0,0 km/h
29.03.2018 22:00 3,2 C 84 % 1005,5 hPa 0,0 l/m 0,0 km/h NO 0,8 C 3,2 C 0,0 km/h
29.03.2018 23:00 2,4 C 85 % 1005,6 hPa 0,0 l/m 0,0 km/h O-SO 0,1 C 2,4 C 0,0 km/h
30.03.2018 00:00 2,1 C 85 % 1005,3 hPa 0,0 l/m 7,8 km/h O-SO -0,2 C 0,7 C 4,3 km/h
30.03.2018 01:00 1,8 C 86 % 1005,0 hPa 0,0 l/m 0,0 km/h O-NO -0,3 C 1,8 C 0,0 km/h
30.03.2018 02:00 1,2 C 85 % 1004,2 hPa 0,0 l/m 0,0 km/h O-SO -1,0 C 1,2 C 0,0 km/h
30.03.2018 03:00 1,0 C 86 % 1003,8 hPa 0,0 l/m 0,0 km/h O-NO -1,1 C 1,0 C 0,0 km/h
30.03.2018 04:00 0,8 C 86 % 1003,5 hPa 0,0 l/m 0,0 km/h NO -1,3 C 0,8 C 0,0 km/h
30.03.2018 05:00 0,7 C 86 % 1002,9 hPa 0,0 l/m 0,0 km/h NO -1,4 C 0,7 C 0,0 km/h
30.03.2018 06:00 0,1 C 85 % 1002,3 hPa 0,0 l/m 0,0 km/h NO -2,1 C 0,1 C 0,0 km/h
30.03.2018 07:00 0,2 C 85 % 1001,9 hPa 0,0 l/m 0,0 km/h NO -2,0 C 0,2 C 0,0 km/h
30.03.2018 08:00 2,9 C 83 % 1001,1 hPa 0,0 l/m 0,0 km/h W-SW 0,3 C 2,9 C 0,0 km/h
30.03.2018 09:00 11,0 C 74 % 1000,4 hPa 0,0 l/m 2,6 km/h W 6,5 C 11,0 C 1,4 km/h
30.03.2018 10:00 12,8 C 65 % 999,6 hPa 0,0 l/m 0,0 km/h W 6,4 C 12,8 C 0,0 km/h
30.03.2018 11:00 16,3 C 56 % 998,4 hPa 0,0 l/m 0,0 km/h N-NW 7,5 C 16,3 C 0,0 km/h
30.03.2018 12:00 11,3 C 66 % 997,9 hPa 0,0 l/m 0,0 km/h W 5,2 C 11,3 C 0,0 km/h
30.03.2018 13:00 13,9 C 62 % 996,9 hPa 0,0 l/m 3,9 km/h W-NW 6,7 C 13,9 C 2,2 km/h
30.03.2018 14:00 14,9 C 58 % 995,1 hPa 0,0 l/m 0,0 km/h W-SW 6,7 C 14,9 C 0,0 km/h
30.03.2018 15:00 12,8 C 65 % 995,2 hPa 0,0 l/m 24,0 km/h W-SW 6,4 C 5,9 C 13,3 km/h
30.03.2018 16:00 10,6 C 70 % 997,7 hPa 0,0 l/m 0,0 km/h W-SW 5,4 C 10,6 C 0,0 km/h
30.03.2018 17:00 8,4 C 81 % 998,2 hPa 0,0 l/m 20,7 km/h S-SW 5,3 C 1,0 C 11,5 km/h
30.03.2018 18:00 7,2 C 85 % 998,4 hPa 1,0 l/m 0,0 km/h SO 4,9 C 7,2 C 0,0 km/h
30.03.2018 19:00 6,7 C 85 % 997,5 hPa 1,6 l/m 8,4 km/h W-SW 4,4 C 5,1 C 4,7 km/h
30.03.2018 20:00 7,3 C 84 % 998,0 hPa 0,0 l/m 0,0 km/h NW 4,8 C 7,3 C 0,0 km/h
30.03.2018 21:00 6,3 C 84 % 998,3 hPa 0,0 l/m 0,0 km/h SO 3,8 C 6,3 C 0,0 km/h
30.03.2018 22:00 5,6 C 85 % 997,6 hPa 0,0 l/m 0,0 km/h NO 3,3 C 5,6 C 0,0 km/h
30.03.2018 23:00 5,1 C 85 % 997,9 hPa 0,0 l/m 0,0 km/h O-SO 2,8 C 5,1 C 0,0 km/h
31.03.2018 00:00 5,1 C 84 % 997,7 hPa 0,0 l/m 0,0 km/h O-NO 2,6 C 5,1 C 0,0 km/h
31.03.2018 01:00 5,3 C 83 % 997,7 hPa 0,0 l/m 0,0 km/h O-NO 2,7 C 5,3 C 0,0 km/h
31.03.2018 02:00 5,1 C 83 % 997,7 hPa 0,0 l/m 0,0 km/h O-NO 2,5 C 5,1 C 0,0 km/h
31.03.2018 03:00 5,1 C 83 % 997,5 hPa 0,0 l/m 0,0 km/h O-NO 2,5 C 5,1 C 0,0 km/h
31.03.2018 04:00 4,2 C 83 % 997,2 hPa 0,0 l/m 0,0 km/h O-NO 1,6 C 4,2 C 0,0 km/h
31.03.2018 05:00 4,4 C 83 % 997,1 hPa 0,0 l/m 0,0 km/h O-NO 1,8 C 4,4 C 0,0 km/h
31.03.2018 06:00 4,4 C 82 % 997,1 hPa 0,0 l/m 0,0 km/h O-NO 1,6 C 4,4 C 0,0 km/h
31.03.2018 07:00 4,8 C 81 % 997,2 hPa 0,0 l/m 0,0 km/h O-NO 1,8 C 4,8 C 0,0 km/h
31.03.2018 08:00 5,9 C 80 % 997,3 hPa 0,0 l/m 0,0 km/h N-NO 2,7 C 5,9 C 0,0 km/h
31.03.2018 09:00 8,8 C 84 % 997,3 hPa 0,0 l/m 0,0 km/h W 6,2 C 8,8 C 0,0 km/h
31.03.2018 10:00 10,8 C 79 % 997,5 hPa 0,0 l/m 0,0 km/h W 7,3 C 10,8 C 0,0 km/h
31.03.2018 11:00 12,6 C 70 % 997,7 hPa 0,0 l/m 0,0 km/h N-NO 7,3 C 12,6 C 0,0 km/h
31.03.2018 12:00 13,8 C 64 % 997,6 hPa 0,0 l/m 0,0 km/h W-SW 7,1 C 13,8 C 0,0 km/h
31.03.2018 13:00 14,3 C 57 % 997,6 hPa 0,0 l/m 0,0 km/h W 5,9 C 14,3 C 0,0 km/h
31.03.2018 14:00 15,9 C 50 % 997,1 hPa 0,0 l/m 1,3 km/h W-SW 5,5 C 15,9 C 0,7 km/h
31.03.2018 15:00 14,9 C 44 % 997,2 hPa 0,0 l/m 0,0 km/h W-NW 2,8 C 14,9 C 0,0 km/h
31.03.2018 16:00 15,5 C 39 % 997,2 hPa 0,0 l/m 0,0 km/h N 1,6 C 15,5 C 0,0 km/h
31.03.2018 17:00 18,2 C 36 % 997,5 hPa 0,0 l/m 7,8 km/h NW 2,9 C 17,6 C 4,3 km/h
31.03.2018 18:00 13,1 C 47 % 997,9 hPa 0,0 l/m 0,0 km/h W 2,0 C 13,1 C 0,0 km/h
31.03.2018 19:00 9,3 C 60 % 998,5 hPa 0,0 l/m 0,0 km/h N-NO 1,9 C 9,3 C 0,0 km/h
31.03.2018 20:00 6,3 C 71 % 999,6 hPa 0,0 l/m 0,0 km/h O 1,4 C 6,3 C 0,0 km/h
31.03.2018 21:00 4,7 C 77 % 1000,2 hPa 0,0 l/m 0,0 km/h O-SO 1,0 C 4,7 C 0,0 km/h
31.03.2018 22:00 2,9 C 80 % 1000,7 hPa 0,0 l/m 0,0 km/h SO -0,2 C 2,9 C 0,0 km/h
31.03.2018 23:00 2,6 C 83 % 1001,3 hPa 0,0 l/m 0,0 km/h SO 0,0 C 2,6 C 0,0 km/h
01.04.2018 00:00 3,9 C 84 % 1001,7 hPa 0,0 l/m 0,0 km/h O 1,4 C 3,9 C 0,0 km/h
01.04.2018 01:00 3,8 C 84 % 1002,8 hPa 0,0 l/m 0,0 km/h NO 1,4 C 3,8 C 0,0 km/h
01.04.2018 02:00 4,3 C 84 % 1003,6 hPa 0,0 l/m 0,0 km/h SW 1,8 C 4,3 C 0,0 km/h
01.04.2018 03:00 5,2 C 85 % 1004,0 hPa 0,0 l/m 16,8 km/h W-SW 2,9 C -1,6 C 9,4 km/h
01.04.2018 04:00 5,2 C 85 % 1004,5 hPa 0,0 l/m 13,0 km/h SW 2,9 C 0,4 C 7,2 km/h
01.04.2018 05:00 5,1 C 85 % 1005,3 hPa 0,5 l/m 12,3 km/h SW 2,8 C 0,7 C 6,8 km/h
01.04.2018 06:00 5,3 C 85 % 1005,9 hPa 0,0 l/m 16,2 km/h S-SW 3,0 C -1,1 C 9,0 km/h
01.04.2018 07:00 5,8 C 84 % 1006,7 hPa 0,0 l/m 33,7 km/h W-SW 3,3 C -6,1 C 18,7 km/h
01.04.2018 08:00 6,1 C 84 % 1007,2 hPa 0,0 l/m 31,8 km/h SW 3,6 C -5,3 C 17,6 km/h
01.04.2018 09:00 6,5 C 82 % 1008,0 hPa 0,0 l/m 48,6 km/h S-SW 3,7 C -7,5 C 27,0 km/h
01.04.2018 10:00 7,3 C 80 % 1008,5 hPa 0,0 l/m 41,5 km/h SW 4,1 C -5,3 C 23,0 km/h
01.04.2018 11:00 8,3 C 76 % 1009,0 hPa 0,0 l/m 29,2 km/h W-SW 4,3 C -1,5 C 16,2 km/h
01.04.2018 12:00 5,9 C 84 % 1009,6 hPa 1,6 l/m 25,3 km/h SW 3,4 C -3,8 C 14,0 km/h
01.04.2018 13:00 9,3 C 76 % 1010,3 hPa 0,0 l/m 43,4 km/h SW 5,3 C -2,6 C 24,1 km/h
01.04.2018 14:00 7,8 C 76 % 1010,2 hPa 0,0 l/m 35,6 km/h S-SW 3,8 C -3,6 C 19,8 km/h
01.04.2018 15:00 7,4 C 79 % 1010,7 hPa 0,0 l/m 27,2 km/h W-SW 4,0 C -2,3 C 15,1 km/h
01.04.2018 16:00 7,2 C 79 % 1010,8 hPa 0,5 l/m 19,4 km/h W-SW 3,8 C -0,1 C 10,8 km/h
01.04.2018 17:00 7,5 C 76 % 1011,4 hPa 0,0 l/m 15,6 km/h W-NW 3,5 C 1,8 C 8,6 km/h
01.04.2018 18:00 6,4 C 81 % 1012,0 hPa 0,0 l/m 0,0 km/h SO 3,4 C 6,4 C 0,0 km/h
01.04.2018 19:00 5,8 C 84 % 1012,2 hPa 0,0 l/m 0,0 km/h NO 3,3 C 5,8 C 0,0 km/h
01.04.2018 20:00 5,0 C 85 % 1012,8 hPa 0,0 l/m 0,0 km/h NO 2,7 C 5,0 C 0,0 km/h
01.04.2018 21:00 4,9 C 85 % 1013,2 hPa 0,0 l/m 0,0 km/h NO 2,6 C 4,9 C 0,0 km/h
01.04.2018 22:00 4,5 C 85 % 1013,1 hPa 0,0 l/m 0,0 km/h NO 2,2 C 4,5 C 0,0 km/h
01.04.2018 23:00 3,1 C 85 % 1013,2 hPa 0,0 l/m 0,0 km/h NO 0,8 C 3,1 C 0,0 km/h
Min-Datum _ 30.03.18 31.03.18 30.03.18 - 26.03.18 - 30.03.18 01.04.18 26.03.18
_ Min-Zeit 06:53 17:53 14:53 - 00:53 - 06:53 09:53 00:53
Minimum _ 0,1 C 36 % 995,1 hPa - 0,0 km/h - -2,1 C -7,5 C 0,0 km/h
Max-Datum _ 31.03.18 27.03.18 26.03.18 28.03.18 01.04.18 - 28.03.18 31.03.18 01.04.18
_ Max-Zeit 17:53 05:53 23:53 22:53 09:53 - 15:53 17:53 09:53
Maximum _ 18,2 C 86 % 1014,8 hPa 4,1 l/m 48,6 km/h
S-SW
- 8,6 C 17,6 C 27,0 km/h
S-SW
Durchschnitt _ 7,6 C 76 % 1005,7 hPa #15,5 l/m 7,5 km/h W-SW 3,4 C 5,4 C 4,2 km/h
www.sexauwetter.de